Aérodrome :
LOGIN :

S'inscrire | Disclaimer

   EN    FR    IT 

 










Légende :    VFR   VFR Marginal   IFR   IFR Intensif   IFR Très Intensif
Visi : 
Plafond : 
>= 8 km
>= 3000ft
5 à 8 km
1000 à 3000 ft
1500m à 5 km
500 à 1000 ft
800 à 1500m
200 à 500 ft
< 800m
< 200 ft
Symboles :   Orages  Brouillard  Fortes neiges  Fortes précipitations  Vent > 20 kt
SIGMETs :   Divers  Orages  Givrage  Turbulence  Onde Orograph.  Cendres Volcan.






- Altitude de l'aérodrome : 16 ft
- Code IATA : SDL


ESNN - Sundsvall-Härnösand

DERNIER METAR :
  • 231720Z 29008KT 260V330 9999 SCT049 03/M05 Q0983 R16/15//72

METARs EXPIRÉS :
  • 231650Z 28011KT 9999 BKN049 03/M05 Q0983 R16/15//72
  • 231620Z 28008KT CAVOK 03/M05 Q0982 R16/15//72
  • 231550Z 28012KT 250V310 CAVOK 03/M06 Q0982 R16/15//72
  • 231520Z 28015G25KT 250V310 CAVOK 04/M06 Q0981 R16/15//72
  • 231450Z 30014KT 260V320 CAVOK 04/M06 Q0981 R16/15//72

TAF TAF ESNN
Valide du 23 à 15h jusqu'au 23 à 23h UTC


231430Z 2315/2323 29015G28KT 9999 SCT040
BECMG 2315/2317 31012KT
BECMG 2319/2321 32015G28KT



MET'MAP, la Météo Aéronautique d'un coup d'oeil ! - Copyright ORBIFLY Décembre 2007 - Disclaimer

ORBIFLY MET'MAP TEAM :

Programmation & Développement : Alexandra Zaïnal
Sur une idée originale de : Baudouin d'Aumeries
Assistance à la programmation : Marc-Olivier Méhu
Soutien technique & logistique : Manuel Goepfert

Contact : metmap@orbifly.com




SOURCES & CREDITS :

   NOAA